KROC/ROC METAR and TAF weather

Enter ICAO airport designator
Station Type Date Time Source
KROC METAR 2022/05/23 14:54 UTC NOAA

KROC 231454Z 35007KT 10SM FEW060 SCT250 14/08 A3033 RMK AO2 SLP273 T01440078 50003


Station Type Date Time Source
KROC Decoded METAR 2022/05/23 14:54 UTC NOAA

GREATER ROCHESTER INTERNATIONAL , NY, United States (KROC) 43-07N 077-41W 178M
May 23, 2022 - 10:54 AM EDT / 2022.05.23 1454 UTC
Wind: from the N (350 degrees) at 8 MPH (7 KT):0
Visibility: 10 mile(s):0
Sky conditions: partly cloudy
Temperature: 57.9 F (14.4 C)
Dew Point: 46.0 F (7.8 C)
Relative Humidity: 64%
Pressure (altimeter): 30.33 in. Hg (1027 hPa)
Pressure tendency: 0.01 inches (0.3 hPa) higher than three hours ago
ob: KROC 231454Z 35007KT 10SM FEW060 SCT250 14/08 A3033 RMK AO2 SLP273 T01440078 50003
cycle: 15

Station Type Date Time Source
KROC TAF 2022/05/23 12:42 UTC NOAA

TAF KROC 231139Z 2312/2412 28004KT P6SM BKN180 OVC250
FM231800 36007KT P6SM BKN250

Example: see airport list